Time;durP1;ratioP1;P1;durP2;ratioP2;P2;SDS_P1;SDS_P2;PMS_P1;PMS_P2;Temp;Humidity;BMP_temperature;BMP_pressure;BME280_temperature;BME280_humidity;BME280_pressure;Samples;Min_cycle;Max_cycle;Signal;HPM_P1;HPM_P2
2021/06/16 00:02:05;;;;;;;6.85;5.75;;;;;;;;;;5114355;28;20031;-73
2021/06/16 00:04:31;;;;;;;7.93;6.05;;;;;;;;;;5114082;28;20437;-72
2021/06/16 00:06:57;;;;;;;9.25;5.93;;;;;;;;;;5114161;28;20088;-71
2021/06/16 00:09:23;;;;;;;6.47;5.88;;;;;;;;;;5114810;28;20020;-72
2021/06/16 00:11:49;;;;;;;9.90;5.93;;;;;;;;;;5114412;28;20030;-72
2021/06/16 00:14:16;;;;;;;6.43;5.78;;;;;;;;;;5114513;28;20038;-72
2021/06/16 00:16:42;;;;;;;6.53;5.68;;;;;;;;;;5113783;28;20533;-73
2021/06/16 00:19:08;;;;;;;6.30;5.68;;;;;;;;;;5114130;28;20028;-72
2021/06/16 00:21:34;;;;;;;7.47;6.70;;;;;;;;;;5114831;28;20019;-72
2021/06/16 00:24:01;;;;;;;6.43;5.82;;;;;;;;;;5114226;28;20128;-72
2021/06/16 00:26:27;;;;;;;6.20;5.60;;;;;;;;;;5114433;28;20026;-72
2021/06/16 00:28:53;;;;;;;7.85;6.10;;;;;;;;;;5114069;28;20027;-72
2021/06/16 00:31:19;;;;;;;8.40;5.20;;;;;;;;;;5114134;28;20376;-72
2021/06/16 00:33:45;;;;;;;6.20;5.35;;;;;;;;;;5114551;28;20028;-72
2021/06/16 00:36:11;;;;;;;6.78;5.43;;;;;;;;;;5114474;28;20020;-72
2021/06/16 00:38:37;;;;;;;6.53;5.70;;;;;;;;;;5116208;28;20027;-72
2021/06/16 00:41:04;;;;;;;6.85;5.57;;;;;;;;;;5117680;28;20354;-72
2021/06/16 00:43:30;;;;;;;6.60;6.00;;;;;;;;;;5117810;28;20036;-72
2021/06/16 00:45:56;;;;;;;6.35;5.35;;;;;;;;;;5117806;28;20039;-71
2021/06/16 00:48:22;;;;;;;6.78;6.13;;;;;;;;;;5117134;28;20485;-72
2021/06/16 00:50:48;;;;;;;5.40;4.90;;;;;;;;;;5117415;28;20027;-72
2021/06/16 00:53:14;;;;;;;5.22;4.78;;;;;;;;;;5117677;28;20046;-72
2021/06/16 00:55:40;;;;;;;9.60;6.22;;;;;;;;;;5117834;28;20026;-71
2021/06/16 00:58:08;;;;;;;8.23;6.18;;;;;;;;;;5117746;28;20024;-72
2021/06/16 01:00:52;;;;;;;6.30;5.70;;;;;;;;;;5117286;28;20407;-72
2021/06/16 01:03:22;;;;;;;7.40;5.13;;;;;;;;;;5117437;28;20122;-72
2021/06/16 01:05:50;;;;;;;7.00;6.32;;;;;;;;;;5117400;28;20049;-71
2021/06/16 01:08:18;;;;;;;6.38;5.55;;;;;;;;;;5117268;28;20067;-72
2021/06/16 01:10:44;;;;;;;6.63;6.03;;;;;;;;;;5116975;28;20023;-72
2021/06/16 01:13:14;;;;;;;6.70;6.03;;;;;;;;;;5116983;28;20084;-71
2021/06/16 01:15:43;;;;;;;6.72;5.30;;;;;;;;;;5117330;28;20020;-71
2021/06/16 01:18:09;;;;;;;8.55;6.28;;;;;;;;;;5117222;28;20032;-72
2021/06/16 01:20:39;;;;;;;6.20;4.72;;;;;;;;;;5116943;28;20110;-71
2021/06/16 01:23:14;;;;;;;6.18;5.68;;;;;;;;;;5117297;28;20106;-71
2021/06/16 01:26:00;;;;;;;5.80;5.20;;;;;;;;;;5117072;28;20072;-71
2021/06/16 01:28:35;;;;;;;7.53;5.90;;;;;;;;;;5101943;28;20046;-72
2021/06/16 01:31:02;;;;;;;6.88;6.18;;;;;;;;;;5116915;28;20024;-72
2021/06/16 01:33:28;;;;;;;8.38;6.03;;;;;;;;;;5116892;28;20092;-70
2021/06/16 01:35:55;;;;;;;6.63;5.40;;;;;;;;;;5116757;28;20027;-71
2021/06/16 01:38:21;;;;;;;5.95;5.40;;;;;;;;;;5116847;28;20020;-71
2021/06/16 01:40:48;;;;;;;6.55;5.22;;;;;;;;;;5116522;28;20024;-72
2021/06/16 01:43:14;;;;;;;5.60;5.10;;;;;;;;;;5116826;28;20070;-71
2021/06/16 01:45:40;;;;;;;5.97;5.20;;;;;;;;;;5116653;28;20027;-71
2021/06/16 01:48:07;;;;;;;6.05;5.45;;;;;;;;;;5117180;28;20481;-71
2021/06/16 01:50:33;;;;;;;6.55;5.82;;;;;;;;;;5115859;28;20492;-72
2021/06/16 01:52:59;;;;;;;5.78;5.25;;;;;;;;;;5116116;28;20051;-72
2021/06/16 01:55:26;;;;;;;6.88;5.80;;;;;;;;;;5117016;28;20024;-72
2021/06/16 01:57:52;;;;;;;6.35;5.78;;;;;;;;;;5117063;28;20032;-72
2021/06/16 02:00:19;;;;;;;5.97;5.38;;;;;;;;;;5116585;28;20015;-72
2021/06/16 02:02:45;;;;;;;5.97;5.15;;;;;;;;;;5116064;28;20020;-72
2021/06/16 02:05:12;;;;;;;8.90;5.10;;;;;;;;;;5116185;28;20032;-72
2021/06/16 02:07:41;;;;;;;7.60;5.53;;;;;;;;;;5116179;28;20023;-73
2021/06/16 02:10:07;;;;;;;5.95;5.35;;;;;;;;;;5116268;28;20376;-71
2021/06/16 02:12:33;;;;;;;6.10;5.25;;;;;;;;;;5115984;28;20028;-72
2021/06/16 02:15:05;;;;;;;7.60;5.85;;;;;;;;;;5115686;28;20421;-72
2021/06/16 02:17:31;;;;;;;6.22;5.63;;;;;;;;;;5115981;28;20114;-71
2021/06/16 02:19:57;;;;;;;5.55;5.05;;;;;;;;;;5115641;28;20520;-72
2021/06/16 02:22:26;;;;;;;5.55;5.05;;;;;;;;;;5115514;28;20473;-72
2021/06/16 02:24:52;;;;;;;7.00;5.82;;;;;;;;;;5115639;28;20423;-72
2021/06/16 02:27:18;;;;;;;5.35;4.85;;;;;;;;;;5116479;28;20062;-70
2021/06/16 02:29:44;;;;;;;6.38;5.55;;;;;;;;;;5115677;28;20024;-72
2021/06/16 02:32:10;;;;;;;6.75;5.20;;;;;;;;;;5115845;28;20023;-72
2021/06/16 02:34:37;;;;;;;8.40;5.50;;;;;;;;;;5115746;28;20027;-72
2021/06/16 02:37:04;;;;;;;7.78;5.60;;;;;;;;;;5115219;28;20377;-72
2021/06/16 02:39:33;;;;;;;6.47;5.18;;;;;;;;;;5115460;28;20024;-72
2021/06/16 02:41:59;;;;;;;5.72;5.18;;;;;;;;;;5115758;28;20072;-71
2021/06/16 02:44:25;;;;;;;6.65;4.82;;;;;;;;;;5115804;28;20043;-71
2021/06/16 02:46:52;;;;;;;7.65;5.25;;;;;;;;;;5115208;28;20023;-71
2021/06/16 02:49:18;;;;;;;6.40;5.70;;;;;;;;;;5115010;28;20397;-73
2021/06/16 02:51:45;;;;;;;6.05;5.18;;;;;;;;;;5115018;28;20085;-71
2021/06/16 02:54:12;;;;;;;9.18;6.03;;;;;;;;;;5115670;28;20020;-72
2021/06/16 02:56:39;;;;;;;4.90;4.40;;;;;;;;;;5114860;28;20030;-75
2021/06/16 02:59:05;;;;;;;6.63;5.38;;;;;;;;;;5115313;28;20028;-71
2021/06/16 03:01:31;;;;;;;6.18;5.00;;;;;;;;;;5115186;28;20041;-72
2021/06/16 03:03:57;;;;;;;8.60;5.07;;;;;;;;;;5114847;28;20051;-73
2021/06/16 03:06:23;;;;;;;8.07;4.70;;;;;;;;;;5114803;28;20030;-72
2021/06/16 03:08:50;;;;;;;5.07;4.57;;;;;;;;;;5115113;28;20046;-72
2021/06/16 03:11:17;;;;;;;5.88;5.28;;;;;;;;;;5115144;28;20019;-71
2021/06/16 03:13:43;;;;;;;5.45;4.93;;;;;;;;;;5115425;28;20028;-72
2021/06/16 03:16:09;;;;;;;6.88;5.35;;;;;;;;;;5115067;28;20026;-72
2021/06/16 03:18:35;;;;;;;12.45;5.53;;;;;;;;;;5114683;28;20477;-73
2021/06/16 03:21:01;;;;;;;17.27;4.90;;;;;;;;;;5114359;28;20114;-71
2021/06/16 03:23:27;;;;;;;7.10;5.60;;;;;;;;;;5114913;28;20036;-72
2021/06/16 03:25:55;;;;;;;8.75;6.03;;;;;;;;;;5114913;28;20117;-71
2021/06/16 03:28:21;;;;;;;8.15;5.22;;;;;;;;;;5115000;28;20024;-72
2021/06/16 03:30:48;;;;;;;6.40;5.00;;;;;;;;;;5114256;28;20027;-73
2021/06/16 03:33:14;;;;;;;8.25;5.35;;;;;;;;;;5114746;28;20035;-73
2021/06/16 03:35:40;;;;;;;9.77;5.13;;;;;;;;;;5114748;28;20034;-72
2021/06/16 03:38:06;;;;;;;10.02;6.13;;;;;;;;;;5114768;28;20522;-72
2021/06/16 03:40:32;;;;;;;7.22;5.60;;;;;;;;;;5114511;28;20380;-72
2021/06/16 03:42:58;;;;;;;16.08;5.35;;;;;;;;;;5114377;28;20107;-72
2021/06/16 03:45:25;;;;;;;10.48;5.55;;;;;;;;;;5114933;28;20027;-72
2021/06/16 03:47:51;;;;;;;14.23;5.97;;;;;;;;;;5114385;28;20030;-72
2021/06/16 03:50:19;;;;;;;10.85;5.22;;;;;;;;;;5114477;28;20083;-72
2021/06/16 03:52:45;;;;;;;11.77;5.97;;;;;;;;;;5114319;28;20029;-72
2021/06/16 03:55:11;;;;;;;23.33;6.10;;;;;;;;;;5114524;28;20395;-72
2021/06/16 03:57:38;;;;;;;10.65;5.93;;;;;;;;;;5114875;28;20031;-72
2021/06/16 04:00:05;;;;;;;7.43;5.63;;;;;;;;;;5114231;28;20357;-72
2021/06/16 04:02:31;;;;;;;6.10;5.50;;;;;;;;;;5114336;28;20118;-73
2021/06/16 04:05:01;;;;;;;10.68;5.63;;;;;;;;;;5113953;28;20040;-72
2021/06/16 04:07:27;;;;;;;6.13;5.45;;;;;;;;;;5114659;28;20382;-72
2021/06/16 04:09:53;;;;;;;12.77;5.68;;;;;;;;;;5114186;28;20024;-72
2021/06/16 04:12:19;;;;;;;7.00;5.63;;;;;;;;;;5114440;28;20023;-72
2021/06/16 04:14:46;;;;;;;10.85;5.55;;;;;;;;;;5117854;28;20034;-72
2021/06/16 04:17:12;;;;;;;6.90;5.78;;;;;;;;;;5118000;28;20080;-72
2021/06/16 04:19:38;;;;;;;5.40;4.90;;;;;;;;;;5118181;28;20034;-72
2021/06/16 04:22:04;;;;;;;10.23;6.25;;;;;;;;;;5118232;28;20023;-71
2021/06/16 04:24:30;;;;;;;6.97;6.03;;;;;;;;;;5118100;28;20061;-72
2021/06/16 04:26:57;;;;;;;7.25;5.78;;;;;;;;;;5117999;28;20448;-72
2021/06/16 04:29:23;;;;;;;5.40;4.82;;;;;;;;;;5118401;28;20484;-72
2021/06/16 04:31:49;;;;;;;9.00;5.00;;;;;;;;;;5117638;28;20484;-74
2021/06/16 04:34:15;;;;;;;20.33;5.25;;;;;;;;;;5117662;28;20019;-72
2021/06/16 04:36:41;;;;;;;11.50;5.25;;;;;;;;;;5117960;28;20030;-73
2021/06/16 04:39:08;;;;;;;8.20;5.55;;;;;;;;;;5118124;28;20477;-71
2021/06/16 04:41:34;;;;;;;6.13;5.40;;;;;;;;;;5117871;28;20019;-72
2021/06/16 04:44:00;;;;;;;10.18;5.30;;;;;;;;;;5117997;28;20054;-71
2021/06/16 04:46:27;;;;;;;6.82;5.05;;;;;;;;;;5117210;28;20029;-72
2021/06/16 04:48:53;;;;;;;6.28;5.57;;;;;;;;;;5116992;28;20055;-71
2021/06/16 04:51:19;;;;;;;7.65;5.10;;;;;;;;;;5116103;28;20027;-75
2021/06/16 04:53:45;;;;;;;11.73;6.10;;;;;;;;;;5117288;28;20028;-74
2021/06/16 04:56:11;;;;;;;7.88;4.88;;;;;;;;;;5117130;28;20027;-72
2021/06/16 04:58:37;;;;;;;8.02;5.30;;;;;;;;;;5113689;28;20031;-71
2021/06/16 05:01:03;;;;;;;9.38;5.30;;;;;;;;;;5116299;28;20027;-73
2021/06/16 05:03:29;;;;;;;6.88;6.05;;;;;;;;;;5117043;28;20075;-72
2021/06/16 05:05:55;;;;;;;7.55;5.45;;;;;;;;;;5116604;28;20488;-71
2021/06/16 05:08:22;;;;;;;8.60;5.63;;;;;;;;;;5116773;28;20084;-70
2021/06/16 05:10:48;;;;;;;5.30;4.80;;;;;;;;;;5116781;28;20027;-70
2021/06/16 05:13:20;;;;;;;19.60;7.00;;;;;;;;;;5116407;28;20032;-71
2021/06/16 05:15:46;;;;;;;11.38;5.82;;;;;;;;;;5116628;28;20031;-72
2021/06/16 05:18:12;;;;;;;11.00;5.10;;;;;;;;;;5117076;28;20031;-73
2021/06/16 05:20:38;;;;;;;9.50;5.95;;;;;;;;;;5116426;28;20440;-72
2021/06/16 05:23:04;;;;;;;13.60;8.75;;;;;;;;;;5116657;28;20031;-71
2021/06/16 05:25:30;;;;;;;70.85;23.38;;;;;;;;;;5116651;28;20080;-71
2021/06/16 05:27:56;;;;;;;92.85;31.60;;;;;;;;;;5117111;28;20422;-71
2021/06/16 05:30:23;;;;;;;100.97;35.30;;;;;;;;;;5116648;28;20036;-71
2021/06/16 05:32:49;;;;;;;98.45;32.30;;;;;;;;;;5115665;28;20023;-71
2021/06/16 05:35:15;;;;;;;111.82;33.90;;;;;;;;;;5116914;28;20072;-71
2021/06/16 05:37:44;;;;;;;90.57;32.30;;;;;;;;;;5117258;28;20303;-71
2021/06/16 05:40:10;;;;;;;81.15;31.73;;;;;;;;;;5116663;28;20054;-71
2021/06/16 05:42:36;;;;;;;95.10;33.72;;;;;;;;;;5116792;28;20028;-71
2021/06/16 05:45:03;;;;;;;99.38;32.90;;;;;;;;;;5116333;28;20533;-71
2021/06/16 05:47:30;;;;;;;91.35;33.00;;;;;;;;;;5116860;28;20487;-71
2021/06/16 05:49:56;;;;;;;67.97;30.48;;;;;;;;;;5116528;28;20196;-71
2021/06/16 05:52:22;;;;;;;80.97;29.92;;;;;;;;;;5116316;28;20027;-71
2021/06/16 05:54:48;;;;;;;78.68;29.88;;;;;;;;;;5116466;28;20027;-71
2021/06/16 05:57:14;;;;;;;76.72;26.10;;;;;;;;;;5116376;28;20034;-71
2021/06/16 05:59:40;;;;;;;66.90;26.25;;;;;;;;;;5116090;28;20024;-71
2021/06/16 06:02:06;;;;;;;63.53;25.60;;;;;;;;;;5116159;28;20110;-71
2021/06/16 06:04:34;;;;;;;71.90;29.48;;;;;;;;;;5116182;28;20061;-70
2021/06/16 06:07:00;;;;;;;59.85;26.50;;;;;;;;;;5116156;28;20350;-69
2021/06/16 06:09:26;;;;;;;60.15;25.95;;;;;;;;;;5116022;28;20031;-71
2021/06/16 06:11:52;;;;;;;60.25;22.48;;;;;;;;;;5115872;28;20028;-71
2021/06/16 06:14:18;;;;;;;52.35;23.65;;;;;;;;;;5115948;28;20067;-71
2021/06/16 06:16:44;;;;;;;54.03;20.25;;;;;;;;;;5097218;28;20032;-70
2021/06/16 06:19:10;;;;;;;56.35;21.27;;;;;;;;;;5095800;28;20024;-71
2021/06/16 06:21:36;;;;;;;48.42;21.42;;;;;;;;;;5095949;28;20484;-71
2021/06/16 06:24:02;;;;;;;46.13;20.55;;;;;;;;;;5095328;28;20043;-71
2021/06/16 06:26:28;;;;;;;49.80;20.65;;;;;;;;;;5095205;28;20031;-71
2021/06/16 06:28:55;;;;;;;57.92;22.88;;;;;;;;;;5094366;28;20465;-71
2021/06/16 06:31:21;;;;;;;39.08;19.02;;;;;;;;;;5094401;28;20377;-71
2021/06/16 06:33:47;;;;;;;32.38;16.63;;;;;;;;;;5094951;28;20088;-71
2021/06/16 06:36:13;;;;;;;35.33;14.82;;;;;;;;;;5094519;28;20095;-71
2021/06/16 06:38:39;;;;;;;28.02;14.68;;;;;;;;;;5094959;28;20046;-72
2021/06/16 06:41:05;;;;;;;31.70;13.82;;;;;;;;;;5095459;28;20035;-71
2021/06/16 06:43:31;;;;;;;40.33;15.30;;;;;;;;;;5094766;28;20067;-72
2021/06/16 06:45:57;;;;;;;31.75;15.02;;;;;;;;;;5094483;28;20473;-71
2021/06/16 06:48:23;;;;;;;28.48;14.63;;;;;;;;;;5094980;28;20065;-71
2021/06/16 06:50:50;;;;;;;33.53;14.52;;;;;;;;;;5094703;28;20374;-70
2021/06/16 06:53:17;;;;;;;29.80;16.25;;;;;;;;;;5094651;28;20046;-71
2021/06/16 06:55:43;;;;;;;35.10;15.45;;;;;;;;;;5094648;28;20046;-72
2021/06/16 06:58:09;;;;;;;31.30;14.40;;;;;;;;;;5095200;28;20025;-72
2021/06/16 07:00:35;;;;;;;24.58;12.32;;;;;;;;;;5094740;28;20032;-71
2021/06/16 07:03:01;;;;;;;21.65;11.45;;;;;;;;;;5094404;28;20109;-72
2021/06/16 07:05:28;;;;;;;19.42;11.20;;;;;;;;;;5094453;28;20393;-72
2021/06/16 07:07:54;;;;;;;22.17;10.93;;;;;;;;;;5094780;28;20027;-72
2021/06/16 07:10:20;;;;;;;21.15;12.65;;;;;;;;;;5094422;28;20412;-71
2021/06/16 07:12:46;;;;;;;31.35;12.52;;;;;;;;;;5093880;28;20047;-72
2021/06/16 07:15:12;;;;;;;21.20;9.45;;;;;;;;;;5095274;28;20020;-72
2021/06/16 07:17:38;;;;;;;22.50;12.57;;;;;;;;;;5094356;28;20374;-72
2021/06/16 07:20:05;;;;;;;25.10;12.57;;;;;;;;;;5094265;28;20020;-72
2021/06/16 07:22:31;;;;;;;22.73;11.32;;;;;;;;;;5094193;28;20107;-72
2021/06/16 07:24:57;;;;;;;26.00;12.45;;;;;;;;;;5094238;28;20047;-71
2021/06/16 07:27:23;;;;;;;22.42;11.43;;;;;;;;;;5094126;28;20028;-73
2021/06/16 07:29:49;;;;;;;23.95;10.73;;;;;;;;;;5094219;28;20024;-72
2021/06/16 07:32:17;;;;;;;23.42;10.05;;;;;;;;;;5094598;28;20101;-72
2021/06/16 07:34:43;;;;;;;13.85;8.73;;;;;;;;;;5094164;28;20020;-71
2021/06/16 07:37:09;;;;;;;33.05;10.23;;;;;;;;;;5093798;28;20032;-71
2021/06/16 07:39:35;;;;;;;34.92;11.80;;;;;;;;;;5093381;28;20029;-71
2021/06/16 07:42:02;;;;;;;48.67;12.18;;;;;;;;;;5093595;28;20024;-72
2021/06/16 07:44:28;;;;;;;22.38;10.48;;;;;;;;;;5093367;28;20100;-71
2021/06/16 07:46:54;;;;;;;24.77;9.45;;;;;;;;;;5093404;28;20376;-72
2021/06/16 07:49:20;;;;;;;25.13;10.18;;;;;;;;;;5096830;28;20055;-72
2021/06/16 07:51:46;;;;;;;27.83;11.27;;;;;;;;;;5097629;28;20028;-72
2021/06/16 07:54:13;;;;;;;38.90;11.52;;;;;;;;;;5097750;28;20373;-71
2021/06/16 07:56:39;;;;;;;20.25;9.77;;;;;;;;;;5097368;28;20020;-73
2021/06/16 07:59:05;;;;;;;21.10;8.52;;;;;;;;;;5097539;28;20028;-72
2021/06/16 08:01:32;;;;;;;25.75;9.90;;;;;;;;;;5097586;28;20028;-72
2021/06/16 08:03:58;;;;;;;27.40;11.00;;;;;;;;;;5097238;28;20089;-71
2021/06/16 08:06:24;;;;;;;47.97;11.02;;;;;;;;;;5097750;28;20028;-72
2021/06/16 08:08:50;;;;;;;48.20;13.13;;;;;;;;;;5097622;28;20609;-71
2021/06/16 08:11:16;;;;;;;35.10;10.45;;;;;;;;;;5098092;28;20020;-72
2021/06/16 08:13:42;;;;;;;28.83;9.60;;;;;;;;;;5097193;28;20020;-71
2021/06/16 08:16:08;;;;;;;19.08;9.57;;;;;;;;;;5098134;28;20028;-72
2021/06/16 08:18:34;;;;;;;28.08;10.57;;;;;;;;;;5097398;28;20363;-72
2021/06/16 08:21:00;;;;;;;32.83;10.63;;;;;;;;;;5096602;28;20024;-72
2021/06/16 08:23:26;;;;;;;26.52;10.07;;;;;;;;;;5097240;28;20096;-72
2021/06/16 08:25:52;;;;;;;41.50;9.45;;;;;;;;;;5097406;28;20427;-72
2021/06/16 08:28:18;;;;;;;20.95;9.80;;;;;;;;;;5097277;28;20107;-72
2021/06/16 08:30:44;;;;;;;34.03;8.95;;;;;;;;;;5096811;28;20020;-73
2021/06/16 08:33:11;;;;;;;27.95;8.90;;;;;;;;;;5097107;28;20457;-73
2021/06/16 08:35:37;;;;;;;25.33;9.40;;;;;;;;;;5097340;28;20512;-72
2021/06/16 08:38:03;;;;;;;15.85;7.55;;;;;;;;;;5097000;28;20046;-72
2021/06/16 08:40:29;;;;;;;14.60;8.13;;;;;;;;;;5096992;28;20484;-72
2021/06/16 08:42:55;;;;;;;16.95;8.43;;;;;;;;;;5096369;28;20031;-71
2021/06/16 08:45:21;;;;;;;21.70;9.20;;;;;;;;;;5097310;28;20527;-72
2021/06/16 08:47:48;;;;;;;10.95;7.88;;;;;;;;;;5096897;28;20168;-72
2021/06/16 08:50:14;;;;;;;17.20;9.90;;;;;;;;;;5096339;28;20405;-72
2021/06/16 08:52:40;;;;;;;24.60;10.50;;;;;;;;;;5096475;28;20062;-73
2021/06/16 08:55:07;;;;;;;20.35;9.55;;;;;;;;;;5096866;28;20422;-73
2021/06/16 08:57:34;;;;;;;25.33;9.70;;;;;;;;;;5097219;28;20024;-75
2021/06/16 09:00:00;;;;;;;40.88;8.68;;;;;;;;;;5097908;28;20155;-73
2021/06/16 09:02:26;;;;;;;20.30;10.43;;;;;;;;;;5098823;28;20020;-71
2021/06/16 09:04:52;;;;;;;37.95;10.55;;;;;;;;;;5097532;28;20505;-73
2021/06/16 09:07:20;;;;;;;25.83;9.98;;;;;;;;;;5100170;28;20028;-73
2021/06/16 09:09:47;;;;;;;24.25;9.93;;;;;;;;;;5097304;28;20030;-74
2021/06/16 09:12:17;;;;;;;27.60;10.48;;;;;;;;;;5098110;28;20027;-73
2021/06/16 09:14:52;;;;;;;32.80;11.00;;;;;;;;;;5097809;28;20024;-73
2021/06/16 09:17:18;;;;;;;27.45;12.43;;;;;;;;;;5097808;28;20050;-73
2021/06/16 09:19:50;;;;;;;28.38;11.15;;;;;;;;;;5097318;28;20039;-73
2021/06/16 09:22:16;;;;;;;44.20;11.20;;;;;;;;;;5097848;28;20085;-72
2021/06/16 09:24:45;;;;;;;17.30;9.30;;;;;;;;;;5097356;28;20553;-73
2021/06/16 09:27:13;;;;;;;25.85;11.10;;;;;;;;;;5097938;28;20016;-73
2021/06/16 09:29:39;;;;;;;53.15;11.75;;;;;;;;;;5098204;28;20031;-72
2021/06/16 09:32:06;;;;;;;23.15;11.93;;;;;;;;;;5097936;28;20149;-73
2021/06/16 09:34:32;;;;;;;35.63;13.20;;;;;;;;;;5097685;28;20031;-72
2021/06/16 09:36:59;;;;;;;29.05;14.70;;;;;;;;;;5097503;28;20204;-73
2021/06/16 09:39:26;;;;;;;26.63;17.90;;;;;;;;;;5097761;28;20028;-73
2021/06/16 09:42:01;;;;;;;24.85;22.23;;;;;;;;;;5097778;28;20507;-73
2021/06/16 09:44:44;;;;;;;37.38;30.25;;;;;;;;;;5097811;28;20396;-73
2021/06/16 09:47:11;;;;;;;37.63;33.97;;;;;;;;;;5097558;28;20484;-72
2021/06/16 09:49:53;;;;;;;36.10;32.45;;;;;;;;;;5097555;28;20113;-73
2021/06/16 09:52:27;;;;;;;29.65;26.70;;;;;;;;;;5098218;28;20024;-72
2021/06/16 09:54:53;;;;;;;29.77;26.60;;;;;;;;;;5097095;28;20462;-71
2021/06/16 09:57:19;;;;;;;30.63;23.90;;;;;;;;;;5097691;28;20479;-71
2021/06/16 09:59:46;;;;;;;63.15;57.58;;;;;;;;;;5096988;28;20369;-71
2021/06/16 10:02:18;;;;;;;61.72;55.67;;;;;;;;;;5097055;28;20020;-71
2021/06/16 10:04:45;;;;;;;52.35;46.60;;;;;;;;;;5096624;28;20148;-71
2021/06/16 10:07:20;;;;;;;70.68;63.20;;;;;;;;;;5097616;28;20024;-71
2021/06/16 10:09:51;;;;;;;50.13;42.97;;;;;;;;;;5096980;28;20462;-70
2021/06/16 10:12:17;;;;;;;41.20;37.67;;;;;;;;;;5096455;28;20020;-71
2021/06/16 10:14:43;;;;;;;40.33;36.22;;;;;;;;;;5096342;28;20548;-72
2021/06/16 10:17:09;;;;;;;39.72;33.78;;;;;;;;;;5097262;28;20111;-72
2021/06/16 10:19:35;;;;;;;32.92;29.92;;;;;;;;;;5096824;28;20016;-72
2021/06/16 10:22:02;;;;;;;30.00;26.73;;;;;;;;;;5096830;28;20035;-69
2021/06/16 10:24:28;;;;;;;33.60;30.00;;;;;;;;;;5096084;28;20036;-69
2021/06/16 10:26:55;;;;;;;25.30;22.77;;;;;;;;;;5096654;28;20028;-71
2021/06/16 10:29:21;;;;;;;28.55;23.52;;;;;;;;;;5096575;28;20054;-71
2021/06/16 10:31:47;;;;;;;26.30;21.73;;;;;;;;;;5095647;28;20024;-71
2021/06/16 10:34:13;;;;;;;45.35;20.17;;;;;;;;;;5095455;28;20028;-70
2021/06/16 10:36:39;;;;;;;19.02;16.83;;;;;;;;;;5095210;28;20037;-74
2021/06/16 10:39:15;;;;;;;19.08;16.65;;;;;;;;;;5095520;28;20105;-72
2021/06/16 10:41:54;;;;;;;21.10;16.88;;;;;;;;;;5095622;28;20073;-71
2021/06/16 10:44:21;;;;;;;16.55;15.00;;;;;;;;;;5095123;28;20126;-70
2021/06/16 10:47:05;;;;;;;15.65;14.23;;;;;;;;;;5094778;28;20031;-71
2021/06/16 10:49:54;;;;;;;16.30;14.48;;;;;;;;;;5094940;28;20048;-70
2021/06/16 10:52:22;;;;;;;16.08;14.57;;;;;;;;;;5080145;28;20012;-71
2021/06/16 10:55:04;;;;;;;17.25;13.07;;;;;;;;;;5094507;28;20024;-71
2021/06/16 10:57:30;;;;;;;24.17;11.70;;;;;;;;;;5095448;28;20115;-71
2021/06/16 11:00:06;;;;;;;13.45;12.15;;;;;;;;;;5094903;28;20043;-71
2021/06/16 11:02:52;;;;;;;17.13;10.48;;;;;;;;;;5094741;28;20027;-71
2021/06/16 11:05:22;;;;;;;13.68;10.80;;;;;;;;;;5080258;28;20131;-71
2021/06/16 11:07:48;;;;;;;17.50;10.30;;;;;;;;;;5094750;28;20035;-72
2021/06/16 11:10:14;;;;;;;30.48;27.75;;;;;;;;;;5094694;28;20038;-71
2021/06/16 11:12:41;;;;;;;17.30;10.88;;;;;;;;;;5094223;28;20376;-73
2021/06/16 11:15:08;;;;;;;20.92;10.60;;;;;;;;;;5094245;28;20024;-72
2021/06/16 11:17:39;;;;;;;13.52;8.02;;;;;;;;;;5093574;28;20067;-74
2021/06/16 11:20:06;;;;;;;10.90;7.40;;;;;;;;;;5094331;28;20024;-75
2021/06/16 11:22:33;;;;;;;17.58;7.78;;;;;;;;;;5093822;28;20043;-73
2021/06/16 11:25:20;;;;;;;15.95;8.63;;;;;;;;;;5093839;28;20039;-73
2021/06/16 11:28:07;;;;;;;10.90;7.18;;;;;;;;;;5085667;28;20107;-74
2021/06/16 11:30:35;;;;;;;18.48;8.43;;;;;;;;;;5087444;28;20047;-73
2021/06/16 11:33:22;;;;;;;9.13;6.97;;;;;;;;;;5101132;28;20077;-72
2021/06/16 11:35:56;;;;;;;12.00;7.78;;;;;;;;;;5086063;28;20070;-73
2021/06/16 11:38:29;;;;;;;12.40;8.35;;;;;;;;;;5103308;28;20489;-73
2021/06/16 11:41:01;;;;;;;10.25;7.28;;;;;;;;;;5102664;28;20381;-73
2021/06/16 11:43:27;;;;;;;10.73;6.60;;;;;;;;;;5102295;28;20028;-73
2021/06/16 11:45:54;;;;;;;8.10;6.32;;;;;;;;;;5101212;28;20038;-73
2021/06/16 11:48:20;;;;;;;8.60;7.07;;;;;;;;;;5103458;28;20414;-73
2021/06/16 11:50:46;;;;;;;10.05;6.25;;;;;;;;;;5101961;28;20086;-74
2021/06/16 11:53:12;;;;;;;14.15;7.55;;;;;;;;;;5101508;28;20020;-73
2021/06/16 11:55:39;;;;;;;12.07;6.43;;;;;;;;;;5103333;28;20032;-74
2021/06/16 11:58:22;;;;;;;8.43;6.40;;;;;;;;;;5101930;28;20051;-73
2021/06/16 12:00:51;;;;;;;9.10;6.75;;;;;;;;;;5102003;28;20555;-73
2021/06/16 12:03:17;;;;;;;5.70;5.20;;;;;;;;;;5101128;28;20049;-78
2021/06/16 12:05:44;;;;;;;18.02;7.45;;;;;;;;;;5102550;28;20038;-75
2021/06/16 12:08:11;;;;;;;7.93;5.82;;;;;;;;;;5103081;28;20028;-76
2021/06/16 12:10:37;;;;;;;8.18;4.50;;;;;;;;;;5103508;28;20015;-76
2021/06/16 12:13:05;;;;;;;8.88;5.70;;;;;;;;;;5101641;28;20024;-75
2021/06/16 12:15:33;;;;;;;12.30;5.20;;;;;;;;;;5101128;28;20429;-73
2021/06/16 12:18:10;;;;;;;47.90;6.47;;;;;;;;;;5102717;28;20461;-73
2021/06/16 12:20:42;;;;;;;13.98;6.20;;;;;;;;;;5102910;28;20104;-74
2021/06/16 12:23:29;;;;;;;6.35;5.15;;;;;;;;;;5102048;28;20389;-73
2021/06/16 12:26:17;;;;;;;7.03;4.65;;;;;;;;;;5088079;28;20493;-73
2021/06/16 12:28:44;;;;;;;8.18;5.03;;;;;;;;;;5083414;28;20381;-74
2021/06/16 12:31:16;;;;;;;5.88;4.93;;;;;;;;;;5101426;28;20023;-73
2021/06/16 12:33:50;;;;;;;6.68;5.55;;;;;;;;;;5093624;28;20101;-73
2021/06/16 12:36:17;;;;;;;8.57;5.28;;;;;;;;;;5095581;28;20440;-75
2021/06/16 12:38:44;;;;;;;8.95;5.63;;;;;;;;;;5094301;28;20140;-73
2021/06/16 12:41:26;;;;;;;4.30;3.80;;;;;;;;;;5094535;28;20112;-74
2021/06/16 12:43:52;;;;;;;7.57;4.85;;;;;;;;;;5095780;28;20061;-73
2021/06/16 12:46:19;;;;;;;9.90;5.70;;;;;;;;;;5098225;28;20446;-72
2021/06/16 12:48:45;;;;;;;11.20;4.75;;;;;;;;;;5095831;28;20048;-73
2021/06/16 12:51:11;;;;;;;7.70;5.70;;;;;;;;;;5096727;28;20031;-74
2021/06/16 12:53:38;;;;;;;12.88;4.63;;;;;;;;;;5096167;28;20035;-74
2021/06/16 12:56:05;;;;;;;7.30;4.82;;;;;;;;;;5097212;28;20031;-74
2021/06/16 12:58:31;;;;;;;5.72;4.35;;;;;;;;;;5096918;28;20433;-75
2021/06/16 13:00:58;;;;;;;5.00;4.47;;;;;;;;;;5096119;28;20028;-73
2021/06/16 13:03:26;;;;;;;8.70;4.18;;;;;;;;;;5095567;28;20024;-73
2021/06/16 13:05:56;;;;;;;6.70;4.28;;;;;;;;;;5096941;28;20028;-76
2021/06/16 13:08:38;;;;;;;8.95;4.57;;;;;;;;;;5095847;28;20538;-76
2021/06/16 13:11:24;;;;;;;9.25;5.20;;;;;;;;;;5097124;28;20028;-75
2021/06/16 13:14:10;;;;;;;7.10;4.40;;;;;;;;;;5079592;28;20031;-72
2021/06/16 13:16:37;;;;;;;4.75;4.35;;;;;;;;;;5080811;28;20347;-72
2021/06/16 13:19:06;;;;;;;8.88;5.18;;;;;;;;;;5096024;28;20020;-72
2021/06/16 13:21:32;;;;;;;6.05;4.65;;;;;;;;;;5095455;28;20016;-72
2021/06/16 13:23:58;;;;;;;8.25;4.90;;;;;;;;;;5095630;28;20028;-72
2021/06/16 13:26:25;;;;;;;6.57;4.28;;;;;;;;;;5094265;28;20381;-72
2021/06/16 13:29:07;;;;;;;6.45;4.40;;;;;;;;;;5095317;28;20023;-72
2021/06/16 13:31:33;;;;;;;4.75;4.35;;;;;;;;;;5095669;28;20020;-71
2021/06/16 13:34:15;;;;;;;7.90;4.35;;;;;;;;;;5095817;28;20020;-71
2021/06/16 13:36:41;;;;;;;12.18;3.83;;;;;;;;;;5095007;28;20054;-73
2021/06/16 13:39:08;;;;;;;5.45;4.90;;;;;;;;;;5095472;28;20024;-72
2021/06/16 13:41:34;;;;;;;7.75;4.47;;;;;;;;;;5095565;28;20047;-72
2021/06/16 13:44:00;;;;;;;7.00;4.70;;;;;;;;;;5096078;28;20028;-74
2021/06/16 13:46:26;;;;;;;4.28;3.88;;;;;;;;;;5096070;28;20024;-71
2021/06/16 13:48:52;;;;;;;4.90;4.40;;;;;;;;;;5094163;28;20185;-72
2021/06/16 13:51:18;;;;;;;4.70;3.78;;;;;;;;;;5094817;28;20023;-71
2021/06/16 13:53:44;;;;;;;6.30;4.80;;;;;;;;;;5094721;28;20139;-72
2021/06/16 13:56:11;;;;;;;8.60;4.03;;;;;;;;;;5095372;28;20103;-73
2021/06/16 13:58:37;;;;;;;10.43;4.80;;;;;;;;;;5094727;28;20039;-71
2021/06/16 14:01:03;;;;;;;9.38;4.55;;;;;;;;;;5095519;28;20060;-71
2021/06/16 14:03:30;;;;;;;6.72;4.50;;;;;;;;;;5098116;28;20133;-72
2021/06/16 14:05:56;;;;;;;6.57;4.68;;;;;;;;;;5096947;28;20116;-71
2021/06/16 14:08:22;;;;;;;6.68;4.25;;;;;;;;;;5096629;28;20059;-71
2021/06/16 14:10:48;;;;;;;9.30;4.47;;;;;;;;;;5096737;28;20049;-70
2021/06/16 14:13:14;;;;;;;11.43;4.60;;;;;;;;;;5096237;28;20369;-70
2021/06/16 14:15:40;;;;;;;6.32;4.35;;;;;;;;;;5096387;28;20063;-69
2021/06/16 14:18:07;;;;;;;8.80;4.30;;;;;;;;;;5096015;28;20454;-68
2021/06/16 14:20:33;;;;;;;5.43;4.30;;;;;;;;;;5096451;28;20108;-70
2021/06/16 14:23:00;;;;;;;9.15;4.55;;;;;;;;;;5096409;28;20020;-68
2021/06/16 14:25:26;;;;;;;7.50;3.88;;;;;;;;;;5095922;28;20036;-70
2021/06/16 14:27:53;;;;;;;7.45;3.85;;;;;;;;;;5095600;28;20020;-69
2021/06/16 14:30:20;;;;;;;15.82;4.57;;;;;;;;;;5096379;28;20160;-70
2021/06/16 14:32:47;;;;;;;37.65;5.00;;;;;;;;;;5096192;28;20043;-71
2021/06/16 14:35:13;;;;;;;16.25;4.13;;;;;;;;;;5096687;28;20028;-71